Kapaa, HI

3:15 AM HST on April 27, 2015 (GMT -1000)
WAILUA HOMESTEADS | | Change Station
CLOSE
Current Station
Personal Weather Station
Location: Kapaa, HI
Elevation: 361 ft
Nearby Weather Stations
Active Advisory: High Surf Advisory

Elev 361 ft 22.07 °N, 159.36 °W | Updated 44 seconds ago

Mostly Cloudy
Mostly Cloudy
70.3 °F
Feels Like 70.3 °F
N
3.0
Wind Variable Wind from North
Gusts 9.0 mph

Today
High -- | Low -- °F
--% Chance of Precip.
Yesterday
High -- | Low -- °F
Precip. -- in
6:08 AM 7:02 PM
Waxing Gibbous, 65% visible
Pressure 30.06 in
Visibility 10.0 miles
Clouds Few 2100 ft
Scattered Clouds 3000 ft
Mostly Cloudy 4700 ft
Dew Point 65 °F
Humidity 84%
Rainfall 0.00 in
Snow Depth Not available.
UV 0.0 out of 12
Pollen Not available.
Air Quality Not available.
Flu Activity Regional
SPECI PHLI 271306Z 03016KT 10SM FEW021 SCT030 BKN047 23/18 A3006 RMK AO2 RAB1254E04 P0000

More Conditions Fewer Conditions

Pressure 30.06 in
Visibility 10.0 miles
Clouds Few 2100 ft
Scattered Clouds 3000 ft
Mostly Cloudy 4700 ft
Dew Point 65 °F
Humidity 84%
Rainfall 0.00 in
Snow Depth Not available.
UV 0.0 out of 12
Pollen Not available.
Air Quality Not available.
Flu Activity Regional
SPECI PHLI 271306Z 03016KT 10SM FEW021 SCT030 BKN047 23/18 A3006 RMK AO2 RAB1254E04 P0000

More Conditions Fewer Conditions

10-Day Weather Forecast

Almanac

Astronomy

Apr. 27, 2015 Rise Set
Actual Time
Civil Twilight
Nautical Twilight
Astronomical Twilight
Moon
Length of Visible Light
Length of Day
Tomorrow will be .
, % of the Moon is Illuminated

Today's Extremes

State Highs State Lows

Community

WunderPhotos

Upload Photos

1,817,305 photos uploaded!

WunderBlogs® & News

Nearby

Air Quality

  Air Quality AQ Index Pollutant
Not available.

Snow Depth

Station Depth Elevation

Earthquake Activity

City Distance Mag. Time & Date
Minimum magnitude displayed is 2.5.

Coastal Water Temperatures

Place Temperature

Stations

Nearby Weather Stations

Station Location Temp. Windchill Dew Point Humidity Wind Precip. Elev Updated Type
                   
High Surf Advisory
Statement as of 3:32 PM HST on April 26, 2015

... High surf advisory in effect from 6 am Monday to 6 PM HST
Tuesday...

The National Weather Service in Honolulu has issued a high surf
advisory... which is in effect from 6 am Monday to 6 PM HST
Tuesday.

* Surf... rising to 10 to 15 feet along north facing shores and 6
to 9 feet along east facing shores.

* Timing... beginning 6 am HST Monday until 6 PM HST Tuesday.

* Impacts... moderate... expect strong breaking waves... shore
break... and strong longshore and rip currents making swimming
difficult and dangerous.

Precautionary/preparedness actions...

Beachgoers... swimmers... and surfers should heed all advice given
by ocean safety officials and exercise caution. Boaters should
expect recreational surfers and body boarders utilizing Harbor
channels to access surfing areas.



Burke